createdAt,value
2018-12-05T00:00:12.886Z,18.90
2018-12-05T00:02:41.632Z,18.57
2018-12-05T00:05:10.013Z,13.47
2018-12-05T00:07:42.154Z,14.90
2018-12-05T00:10:21.807Z,18.27
2018-12-05T00:12:51.282Z,15.23
2018-12-05T00:15:19.104Z,15.53
2018-12-05T00:17:46.533Z,17.17
2018-12-05T00:20:13.993Z,17.83
2018-12-05T00:22:41.441Z,18.83
2018-12-05T00:25:08.908Z,15.67
2018-12-05T00:27:36.356Z,14.43
2018-12-05T00:30:04.800Z,14.67
2018-12-05T00:32:32.267Z,13.27
2018-12-05T00:34:59.699Z,17.47
2018-12-05T00:37:27.177Z,16.13
2018-12-05T00:39:54.621Z,17.10
2018-12-05T00:42:22.096Z,16.10
2018-12-05T00:44:49.613Z,20.77
2018-12-05T00:47:17.213Z,16.13
2018-12-05T00:49:44.649Z,15.43
2018-12-05T00:52:12.124Z,18.03
2018-12-05T00:54:39.594Z,20.30
2018-12-05T00:57:07.042Z,23.20
2018-12-05T00:59:34.492Z,20.13
2018-12-05T01:02:01.989Z,20.47
2018-12-05T01:04:29.429Z,22.53
2018-12-05T01:06:56.902Z,23.43
2018-12-05T01:09:24.321Z,25.33
2018-12-05T01:11:51.860Z,22.93
2018-12-05T01:14:19.311Z,22.63
2018-12-05T01:16:46.749Z,27.33
2018-12-05T01:19:14.268Z,24.13
2018-12-05T01:21:41.743Z,27.23
2018-12-05T01:24:09.202Z,24.47
2018-12-05T01:26:36.723Z,26.30
2018-12-05T01:29:04.277Z,32.40
2018-12-05T01:31:31.755Z,22.10
2018-12-05T01:33:59.335Z,25.27
2018-12-05T01:36:26.811Z,22.07
2018-12-05T01:38:54.296Z,26.93
2018-12-05T01:41:21.912Z,28.53
2018-12-05T01:43:49.378Z,28.07
2018-12-05T01:46:16.844Z,25.13
2018-12-05T01:48:44.457Z,25.00
2018-12-05T01:51:12.046Z,27.63
2018-12-05T01:53:39.643Z,32.83
2018-12-05T01:56:07.124Z,27.47
2018-12-05T01:58:34.601Z,33.13
2018-12-05T02:01:02.057Z,33.23
2018-12-05T02:03:29.591Z,19.90
2018-12-05T02:05:57.116Z,23.70
2018-12-05T02:08:24.625Z,29.33
2018-12-05T02:10:52.234Z,19.97
2018-12-05T02:13:19.753Z,21.60
2018-12-05T02:15:47.231Z,19.43
2018-12-05T02:18:14.708Z,25.40
2018-12-05T02:20:42.181Z,19.57
2018-12-05T02:23:09.654Z,27.70
2018-12-05T02:25:37.374Z,26.67
2018-12-05T02:28:04.982Z,20.03
2018-12-05T02:30:32.424Z,20.90
2018-12-05T02:32:59.909Z,22.17
2018-12-05T02:35:27.351Z,31.00
2018-12-05T02:37:54.957Z,29.73
2018-12-05T02:40:22.514Z,33.83
2018-12-05T02:42:49.997Z,35.20
2018-12-05T02:45:17.577Z,23.57
2018-12-05T02:47:45.063Z,27.33
2018-12-05T02:50:12.514Z,29.03
2018-12-05T02:52:39.995Z,28.43
2018-12-05T02:55:07.462Z,30.53
2018-12-05T02:57:34.935Z,25.23
2018-12-05T03:00:03.509Z,25.70
2018-12-05T03:02:31.033Z,26.50
2018-12-05T03:04:58.588Z,27.60
2018-12-05T03:07:26.105Z,30.47
2018-12-05T03:09:53.572Z,31.93
2018-12-05T03:12:21.372Z,24.63
2018-12-05T03:14:48.881Z,33.67
2018-12-05T03:17:16.315Z,31.43
2018-12-05T03:19:43.803Z,26.17
2018-12-05T03:22:11.262Z,24.83
2018-12-05T03:24:38.831Z,25.40
2018-12-05T03:27:06.277Z,25.13
2018-12-05T03:29:33.782Z,21.50
2018-12-05T03:32:01.245Z,32.93
2018-12-05T03:34:28.709Z,33.77
2018-12-05T03:36:56.276Z,32.97
2018-12-05T03:39:23.763Z,44.23
2018-12-05T03:41:51.209Z,38.10
2018-12-05T03:44:18.692Z,47.03
2018-12-05T03:46:46.117Z,54.63
2018-12-05T03:49:13.837Z,44.77
2018-12-05T03:51:41.294Z,56.13
2018-12-05T03:54:08.828Z,48.10
2018-12-05T03:56:36.312Z,43.93
2018-12-05T03:59:03.915Z,45.00
2018-12-05T04:01:31.446Z,37.27
2018-12-05T04:03:58.962Z,45.53
2018-12-05T04:06:26.409Z,40.93
2018-12-05T04:08:53.904Z,41.93
2018-12-05T04:11:21.433Z,47.63
2018-12-05T04:13:49.043Z,42.07
2018-12-05T04:16:16.521Z,42.80
2018-12-05T04:18:44.005Z,41.90
2018-12-05T04:21:11.456Z,59.03
2018-12-05T04:23:38.938Z,61.40
2018-12-05T04:26:06.415Z,53.23
2018-12-05T04:28:33.880Z,56.73
2018-12-05T04:31:01.327Z,62.97
2018-12-05T04:33:28.839Z,47.67
2018-12-05T04:35:56.383Z,51.07
2018-12-05T04:38:23.880Z,61.70
2018-12-05T04:40:51.349Z,43.37
2018-12-05T04:43:19.082Z,46.07
2018-12-05T04:45:46.616Z,47.43
2018-12-05T04:48:14.217Z,59.27
2018-12-05T04:50:41.715Z,50.87
2018-12-05T04:53:09.184Z,40.67
2018-12-05T04:55:36.629Z,37.80
2018-12-05T04:58:04.063Z,40.00
2018-12-05T05:00:31.521Z,42.10
2018-12-05T05:02:58.968Z,34.20
2018-12-05T05:05:26.425Z,37.73
2018-12-05T05:07:53.853Z,33.33
2018-12-05T05:10:21.357Z,39.07
2018-12-05T05:12:48.834Z,37.10
2018-12-05T05:15:16.296Z,35.57
2018-12-05T05:17:43.753Z,33.63
2018-12-05T05:20:12.024Z,33.13
2018-12-05T05:22:39.707Z,37.33
2018-12-05T05:25:07.217Z,33.70
2018-12-05T05:27:34.644Z,37.57
2018-12-05T05:30:02.262Z,35.47
2018-12-05T05:32:29.721Z,32.27
2018-12-05T05:34:57.197Z,31.37
2018-12-05T05:37:24.665Z,28.80
2018-12-05T05:39:52.116Z,34.60
2018-12-05T05:42:19.554Z,30.37
2018-12-05T05:44:47.148Z,41.93
2018-12-05T05:47:14.657Z,41.17
2018-12-05T05:49:42.149Z,40.37
2018-12-05T05:52:09.608Z,41.53
2018-12-05T05:54:37.101Z,42.60
2018-12-05T05:57:04.648Z,42.03
2018-12-05T05:59:32.186Z,41.10
2018-12-05T06:01:59.628Z,44.47
2018-12-05T06:04:27.107Z,43.93
2018-12-05T06:06:54.551Z,40.03
2018-12-05T06:09:22.045Z,45.50
2018-12-05T06:11:49.535Z,41.33
2018-12-05T06:14:17.014Z,46.07
2018-12-05T06:16:44.509Z,42.70
2018-12-05T06:19:11.963Z,40.60
2018-12-05T06:21:39.450Z,46.67
2018-12-05T06:24:06.876Z,54.13
2018-12-05T06:26:34.405Z,49.90
2018-12-05T06:29:01.872Z,54.67
2018-12-05T06:31:29.364Z,49.73
2018-12-05T06:33:56.827Z,40.73
2018-12-05T06:36:24.439Z,43.63
2018-12-05T06:38:51.956Z,43.50
2018-12-05T06:41:19.425Z,38.93
2018-12-05T06:43:46.854Z,37.37
2018-12-05T06:46:14.329Z,41.30
2018-12-05T06:48:41.772Z,38.87
2018-12-05T06:51:09.249Z,49.23
2018-12-05T06:53:36.685Z,43.23
2018-12-05T06:56:04.284Z,40.30
2018-12-05T06:58:31.737Z,48.63
2018-12-05T07:00:59.192Z,46.40
2018-12-05T07:03:26.650Z,39.87
2018-12-05T07:05:54.148Z,46.57
2018-12-05T07:08:21.584Z,49.30
2018-12-05T07:10:49.053Z,46.57
2018-12-05T07:13:16.591Z,52.90
2018-12-05T07:15:44.080Z,47.40
2018-12-05T07:18:11.629Z,47.40
2018-12-05T07:20:39.132Z,54.37
2018-12-05T07:23:06.617Z,69.30
2018-12-05T07:25:34.094Z,64.23
2018-12-05T07:28:01.500Z,56.20
2018-12-05T07:30:29.526Z,62.60
2018-12-05T07:32:57.197Z,62.03
2018-12-05T07:35:24.782Z,59.13
2018-12-05T07:37:52.231Z,50.83
2018-12-05T07:40:19.728Z,53.63
2018-12-05T07:42:47.186Z,47.53
2018-12-05T07:45:14.681Z,54.83
2018-12-05T07:47:42.134Z,69.97
2018-12-05T07:50:09.649Z,131.50
2018-12-05T07:52:37.077Z,101.53
2018-12-05T07:55:04.752Z,68.30
2018-12-05T07:57:32.204Z,49.70
2018-12-05T07:59:59.673Z,44.17
2018-12-05T08:02:27.153Z,41.03
2018-12-05T08:04:54.593Z,42.87
2018-12-05T08:07:22.050Z,46.83
2018-12-05T08:09:49.485Z,54.63
2018-12-05T08:12:17.073Z,61.63
2018-12-05T08:14:44.512Z,43.40
2018-12-05T08:17:11.949Z,55.10
2018-12-05T08:19:39.374Z,46.00
2018-12-05T08:22:06.860Z,46.20
2018-12-05T08:24:34.308Z,46.20
2018-12-05T08:27:01.801Z,44.07
2018-12-05T08:29:29.967Z,40.63
2018-12-05T08:31:57.430Z,44.00
2018-12-05T08:34:24.883Z,51.13
2018-12-05T08:36:52.408Z,49.17
2018-12-05T08:39:19.858Z,54.13
2018-12-05T08:41:47.320Z,55.93
2018-12-05T08:44:14.823Z,48.03
2018-12-05T08:46:42.312Z,49.90
2018-12-05T08:49:09.943Z,45.57
2018-12-05T08:51:37.446Z,52.20
2018-12-05T08:54:05.187Z,49.20
2018-12-05T08:56:32.761Z,45.10
2018-12-05T08:59:00.200Z,41.90
2018-12-05T09:01:27.780Z,40.57
2018-12-05T09:03:55.211Z,60.53
2018-12-05T09:06:22.724Z,54.20
2018-12-05T09:08:50.180Z,42.90
2018-12-05T09:11:17.669Z,42.63
2018-12-05T09:13:45.125Z,49.13
2018-12-05T09:16:12.600Z,54.00
2018-12-05T09:18:40.035Z,50.73
2018-12-05T09:21:07.587Z,55.53
2018-12-05T09:23:35.016Z,51.37
2018-12-05T09:26:02.500Z,44.37
2018-12-05T09:28:30.096Z,40.87
2018-12-05T09:30:57.619Z,48.47
2018-12-05T09:33:25.070Z,42.07
2018-12-05T09:35:52.540Z,39.80
2018-12-05T09:38:20.021Z,39.63
2018-12-05T09:40:47.442Z,42.60
2018-12-05T09:43:14.906Z,36.20
2018-12-05T09:45:42.401Z,31.83
2018-12-05T09:48:09.827Z,38.40
2018-12-05T09:50:37.302Z,33.77
2018-12-05T09:53:04.761Z,40.60
2018-12-05T09:55:32.216Z,35.87
2018-12-05T09:57:59.682Z,41.10
2018-12-05T10:00:27.116Z,34.57
2018-12-05T10:02:54.578Z,33.97
2018-12-05T10:05:22.026Z,37.33
2018-12-05T10:07:49.527Z,39.70
2018-12-05T10:10:17.086Z,43.80
2018-12-05T10:12:44.541Z,39.93
2018-12-05T10:15:12.100Z,37.30
2018-12-05T10:17:39.573Z,37.10
2018-12-05T10:20:07.257Z,41.07
2018-12-05T10:22:34.770Z,40.93
2018-12-05T10:25:02.359Z,38.90
2018-12-05T10:27:29.845Z,35.30
2018-12-05T10:29:57.304Z,35.03
2018-12-05T10:32:24.796Z,29.90
2018-12-05T10:34:52.250Z,27.03
2018-12-05T10:37:19.729Z,27.47
2018-12-05T10:39:47.297Z,31.63
2018-12-05T10:42:14.830Z,24.03
2018-12-05T10:44:42.266Z,26.40
2018-12-05T10:47:09.733Z,27.07
2018-12-05T10:49:37.168Z,23.87
2018-12-05T10:52:04.757Z,24.27
2018-12-05T10:54:32.239Z,24.40
2018-12-05T10:56:59.707Z,26.73
2018-12-05T10:59:27.172Z,26.40
2018-12-05T11:02:00.374Z,22.37
2018-12-05T11:04:33.672Z,24.70
2018-12-05T11:07:06.972Z,19.17
2018-12-05T11:09:40.787Z,21.13
2018-12-05T11:12:13.986Z,25.07
2018-12-05T11:14:47.221Z,25.00
2018-12-05T11:18:22.951Z,23.90
2018-12-05T11:20:56.017Z,28.30
2018-12-05T11:24:29.050Z,24.20
2018-12-05T11:26:56.629Z,26.67
2018-12-05T11:29:24.076Z,26.57
2018-12-05T11:31:51.517Z,25.10
2018-12-05T11:34:19.012Z,24.57
2018-12-05T11:36:46.486Z,23.90
2018-12-05T11:39:13.940Z,22.83
2018-12-05T11:41:41.429Z,22.27
2018-12-05T11:44:09.012Z,25.00
2018-12-05T11:46:36.471Z,23.23
2018-12-05T11:49:03.980Z,21.83
2018-12-05T11:51:31.421Z,22.87
2018-12-05T11:53:58.863Z,22.50
2018-12-05T11:56:26.327Z,23.07
2018-12-05T11:58:53.826Z,23.90
2018-12-05T12:01:21.289Z,25.50
2018-12-05T12:03:48.788Z,26.93
2018-12-05T12:06:16.234Z,23.27
2018-12-05T12:08:43.742Z,25.53
2018-12-05T12:11:12.257Z,26.97
2018-12-05T12:13:39.729Z,27.30
2018-12-05T12:16:07.287Z,26.67
2018-12-05T12:18:34.746Z,25.57
2018-12-05T12:21:02.348Z,28.37
2018-12-05T12:23:29.801Z,24.57
2018-12-05T12:25:57.207Z,21.10
2018-12-05T12:28:24.671Z,21.20
2018-12-05T12:30:52.132Z,16.67
2018-12-05T12:33:19.586Z,15.40
2018-12-05T12:35:47.040Z,13.80
2018-12-05T12:38:14.529Z,16.37
2018-12-05T12:40:41.956Z,17.90
2018-12-05T12:43:09.401Z,24.00
2018-12-05T12:45:36.800Z,17.73
2018-12-05T12:48:04.228Z,19.30
2018-12-05T12:50:31.693Z,20.17
2018-12-05T12:52:59.138Z,19.70
2018-12-05T12:55:26.591Z,22.13
2018-12-05T12:57:54.170Z,22.43
2018-12-05T13:00:21.611Z,19.67
2018-12-05T13:02:49.082Z,19.97
2018-12-05T13:05:16.553Z,18.97
2018-12-05T13:07:44.017Z,18.47
2018-12-05T13:10:11.541Z,23.00
2018-12-05T13:12:39.036Z,22.50
2018-12-05T13:15:06.756Z,24.53
2018-12-05T13:17:34.166Z,22.43
2018-12-05T13:20:01.599Z,20.03
2018-12-05T13:22:29.007Z,20.13
2018-12-05T13:24:56.434Z,19.17
2018-12-05T13:27:23.972Z,19.73
2018-12-05T13:29:51.556Z,20.90
2018-12-05T13:32:19.101Z,23.53
2018-12-05T13:34:46.557Z,25.70
2018-12-05T13:37:13.967Z,25.70
2018-12-05T13:39:41.409Z,27.10
2018-12-05T13:42:08.828Z,24.40
2018-12-05T13:44:36.260Z,28.50
2018-12-05T13:47:03.812Z,27.80
2018-12-05T13:49:31.237Z,27.87
2018-12-05T13:51:58.650Z,34.67
2018-12-05T13:54:26.137Z,27.53
2018-12-05T13:56:53.701Z,27.77
2018-12-05T13:59:21.145Z,32.97
2018-12-05T14:01:48.544Z,35.53
2018-12-05T14:04:15.972Z,33.07
2018-12-05T14:06:43.384Z,32.23
2018-12-05T14:09:10.842Z,31.47
2018-12-05T14:11:38.247Z,31.63
2018-12-05T14:14:05.788Z,30.73
2018-12-05T14:16:33.176Z,36.80
2018-12-05T14:19:00.599Z,33.97
2018-12-05T14:21:34.848Z,35.83
2018-12-05T14:24:02.280Z,35.77
2018-12-05T14:26:29.677Z,38.97
2018-12-05T14:28:57.121Z,35.00
2018-12-05T14:31:24.514Z,33.43
2018-12-05T14:33:51.968Z,35.00
2018-12-05T14:36:19.406Z,35.10
2018-12-05T14:38:46.829Z,32.20
2018-12-05T14:41:14.252Z,36.00
2018-12-05T14:43:41.639Z,30.07
2018-12-05T14:46:09.053Z,33.30
2018-12-05T14:48:36.523Z,32.30
2018-12-05T14:51:04.016Z,36.23
2018-12-05T14:53:31.433Z,32.37
2018-12-05T14:55:58.855Z,31.67
2018-12-05T14:58:26.271Z,34.27
2018-12-05T15:00:53.725Z,28.77
2018-12-05T15:03:21.185Z,32.90
2018-12-05T15:05:48.657Z,33.10
2018-12-05T15:08:16.122Z,32.70
2018-12-05T15:10:43.648Z,36.23
2018-12-05T15:13:11.091Z,31.90
2018-12-05T15:15:38.681Z,38.93
2018-12-05T15:18:06.120Z,41.70
2018-12-05T15:20:33.627Z,36.03
2018-12-05T15:23:01.041Z,33.70
2018-12-05T15:25:28.476Z,35.67
2018-12-05T15:27:55.870Z,34.60
2018-12-05T15:30:23.308Z,31.50
2018-12-05T15:32:50.712Z,34.50
2018-12-05T15:35:18.136Z,39.17
2018-12-05T15:37:45.640Z,34.80
2018-12-05T15:40:13.060Z,32.37
2018-12-05T15:42:40.444Z,36.50
2018-12-05T15:45:08.113Z,29.73
2018-12-05T15:47:36.169Z,34.73
2018-12-05T15:50:05.223Z,27.57
2018-12-05T15:52:32.648Z,32.63
2018-12-05T15:55:00.081Z,29.20
2018-12-05T15:57:27.485Z,37.63
2018-12-05T15:59:54.935Z,31.00
2018-12-05T16:02:22.340Z,34.10
2018-12-05T16:04:49.824Z,30.73
2018-12-05T16:07:17.292Z,33.63
2018-12-05T16:09:44.716Z,32.37
2018-12-05T16:12:12.184Z,35.10
2018-12-05T16:14:39.582Z,34.87
2018-12-05T16:17:07.004Z,35.70
2018-12-05T16:19:34.497Z,32.20
2018-12-05T16:22:01.931Z,29.47
2018-12-05T16:24:29.336Z,31.77
2018-12-05T16:26:56.765Z,30.70
2018-12-05T16:29:24.164Z,34.00
2018-12-05T16:31:53.401Z,35.23
2018-12-05T16:34:21.060Z,33.13
2018-12-05T16:36:48.697Z,27.47
2018-12-05T16:39:16.117Z,27.53
2018-12-05T16:41:43.593Z,25.57
2018-12-05T16:44:12.947Z,29.80
2018-12-05T16:46:40.554Z,29.13
2018-12-05T16:49:07.968Z,29.20
2018-12-05T16:51:35.700Z,29.10
2018-12-05T16:54:03.365Z,28.13
2018-12-05T16:56:32.871Z,26.93
2018-12-05T16:59:01.393Z,26.03
2018-12-05T17:01:28.887Z,26.43
2018-12-05T17:03:56.328Z,24.17
2018-12-05T17:06:23.811Z,24.63
2018-12-05T17:08:51.321Z,24.10
2018-12-05T17:11:18.789Z,26.67
2018-12-05T17:13:46.321Z,23.50
2018-12-05T17:16:17.920Z,23.33
2018-12-05T17:18:44.032Z,25.67
2018-12-05T17:21:11.493Z,22.53
2018-12-05T17:23:38.907Z,27.67
2018-12-05T17:26:06.489Z,27.70
2018-12-05T17:28:33.937Z,27.30
2018-12-05T17:31:01.521Z,26.50
2018-12-05T17:33:28.924Z,25.13
2018-12-05T17:35:56.358Z,23.03
2018-12-05T17:38:23.875Z,23.80
2018-12-05T17:40:51.420Z,29.13
2018-12-05T17:43:18.863Z,23.00
2018-12-05T17:45:46.315Z,26.03
2018-12-05T17:48:13.720Z,23.93
2018-12-05T17:50:41.124Z,27.80
2018-12-05T17:53:08.611Z,27.20
2018-12-05T17:55:36.037Z,24.23
2018-12-05T17:58:03.629Z,22.87
2018-12-05T18:00:31.036Z,28.90
2018-12-05T18:02:58.492Z,27.33
2018-12-05T18:05:25.904Z,26.30
2018-12-05T18:07:53.345Z,25.77
2018-12-05T18:10:20.749Z,27.27
2018-12-05T18:12:48.206Z,25.77
2018-12-05T18:15:15.640Z,27.97
2018-12-05T18:17:43.093Z,31.03
2018-12-05T18:20:12.088Z,28.03
2018-12-05T18:22:39.597Z,27.43
2018-12-05T18:25:07.032Z,29.70
2018-12-05T18:27:34.608Z,27.80
2018-12-05T18:30:02.340Z,32.93
2018-12-05T18:32:29.887Z,26.23
2018-12-05T18:34:57.333Z,32.60
2018-12-05T18:37:24.760Z,27.57
2018-12-05T18:39:52.212Z,28.83
2018-12-05T18:42:19.646Z,25.87
2018-12-05T18:44:47.038Z,28.43
2018-12-05T18:47:14.550Z,33.60
2018-12-05T18:49:42.209Z,31.80
2018-12-05T18:52:09.653Z,32.03
2018-12-05T18:54:37.056Z,31.27
2018-12-05T18:57:09.342Z,29.93
2018-12-05T18:59:34.057Z,30.57
2018-12-05T19:02:01.505Z,90.87
2018-12-05T19:04:28.924Z,90.30
2018-12-05T19:06:56.387Z,40.83
2018-12-05T19:09:26.938Z,34.60
2018-12-05T19:11:53.320Z,30.37
2018-12-05T19:14:26.383Z,44.13
2018-12-05T19:16:53.828Z,35.60
2018-12-05T19:19:21.231Z,33.80
2018-12-05T19:21:48.872Z,31.63
2018-12-05T19:24:16.270Z,34.20
2018-12-05T19:26:43.721Z,31.70
2018-12-05T19:29:11.107Z,32.17
2018-12-05T19:31:38.563Z,38.77
2018-12-05T19:34:05.982Z,38.37
2018-12-05T19:36:33.562Z,32.23
2018-12-05T19:39:00.972Z,30.53
2018-12-05T19:41:28.437Z,33.37
2018-12-05T19:43:55.849Z,38.03
2018-12-05T19:46:23.316Z,40.40
2018-12-05T19:48:50.762Z,33.73
2018-12-05T19:51:18.204Z,36.80
2018-12-05T19:53:45.591Z,35.20
2018-12-05T19:56:13.044Z,31.33
2018-12-05T19:58:40.437Z,33.60
2018-12-05T20:01:07.889Z,39.53
2018-12-05T20:03:35.349Z,34.67
2018-12-05T20:06:02.948Z,35.30
2018-12-05T20:08:30.361Z,33.90
2018-12-05T20:10:57.949Z,40.27
2018-12-05T20:13:25.361Z,35.50
2018-12-05T20:15:52.820Z,35.23
2018-12-05T20:18:20.232Z,38.03
2018-12-05T20:20:47.876Z,37.73
2018-12-05T20:23:15.323Z,34.20
2018-12-05T20:25:42.724Z,40.80
2018-12-05T20:28:10.180Z,40.97
2018-12-05T20:30:37.585Z,30.93
2018-12-05T20:33:05.032Z,32.03
2018-12-05T20:35:32.679Z,37.70
2018-12-05T20:38:00.130Z,35.00
2018-12-05T20:40:27.648Z,34.17
2018-12-05T20:42:55.108Z,38.63
2018-12-05T20:45:22.545Z,35.40
2018-12-05T20:47:50.008Z,38.77
2018-12-05T20:50:17.439Z,35.87
2018-12-05T20:52:44.884Z,40.17
2018-12-05T20:55:19.088Z,33.20
2018-12-05T20:57:46.537Z,37.37
2018-12-05T21:00:13.939Z,34.43
2018-12-05T21:02:41.453Z,36.50
2018-12-05T21:05:08.978Z,36.43
2018-12-05T21:07:36.408Z,32.73
2018-12-05T21:10:04.310Z,37.73
2018-12-05T21:12:31.754Z,39.00
2018-12-05T21:14:59.273Z,40.10
2018-12-05T21:17:26.849Z,37.43
2018-12-05T21:19:54.251Z,36.93
2018-12-05T21:22:21.710Z,38.83
2018-12-05T21:24:49.118Z,39.70
2018-12-05T21:27:16.576Z,39.13
2018-12-05T21:29:43.973Z,40.07
2018-12-05T21:32:11.530Z,43.57
2018-12-05T21:34:38.939Z,43.23
2018-12-05T21:37:06.693Z,41.23
2018-12-05T21:39:34.116Z,41.57
2018-12-05T21:42:01.881Z,41.70
2018-12-05T21:44:29.307Z,38.23
2018-12-05T21:46:56.731Z,45.43
2018-12-05T21:49:24.228Z,47.80
2018-12-05T21:51:51.660Z,48.13
2018-12-05T21:54:19.119Z,50.50
2018-12-05T21:56:46.620Z,45.47
2018-12-05T21:59:14.072Z,39.27
2018-12-05T22:01:41.653Z,45.67
2018-12-05T22:04:09.089Z,44.53
2018-12-05T22:06:36.512Z,46.33
2018-12-05T22:09:07.820Z,47.50
2018-12-05T22:11:35.243Z,46.37
2018-12-05T22:14:32.635Z,46.10
2018-12-05T22:17:00.041Z,46.97
2018-12-05T22:19:27.423Z,44.50
2018-12-05T22:21:54.840Z,39.73
2018-12-05T22:24:22.240Z,41.17
2018-12-05T22:26:49.612Z,39.70
2018-12-05T22:29:17.029Z,48.43
2018-12-05T22:31:44.422Z,48.40
2018-12-05T22:34:11.832Z,45.97
2018-12-05T22:36:39.232Z,41.83
2018-12-05T22:39:07.933Z,45.67
2018-12-05T22:41:35.409Z,38.53
2018-12-05T22:44:02.892Z,40.43
2018-12-05T22:46:30.277Z,37.07
2018-12-05T22:48:57.812Z,38.80
2018-12-05T22:51:25.187Z,42.23
2018-12-05T22:53:52.605Z,40.93
2018-12-05T22:56:20.024Z,50.13
2018-12-05T22:58:47.438Z,47.40
2018-12-05T23:01:15.167Z,55.37
2018-12-05T23:03:42.576Z,51.80
2018-12-05T23:06:09.964Z,50.93
2018-12-05T23:08:37.385Z,50.70
2018-12-05T23:11:04.785Z,40.80
2018-12-05T23:13:32.252Z,40.97
2018-12-05T23:15:59.661Z,50.93
2018-12-05T23:18:27.081Z,54.67
2018-12-05T23:20:54.510Z,45.53
2018-12-05T23:23:22.092Z,50.80
2018-12-05T23:25:49.484Z,55.83
2018-12-05T23:28:16.913Z,56.90
2018-12-05T23:30:44.301Z,54.33
2018-12-05T23:33:11.712Z,50.70
2018-12-05T23:35:39.156Z,51.00
2018-12-05T23:38:06.572Z,54.07
2018-12-05T23:40:33.959Z,51.33
2018-12-05T23:43:01.398Z,53.17
2018-12-05T23:45:28.804Z,47.67
2018-12-05T23:47:56.233Z,44.47
2018-12-05T23:50:23.629Z,52.07
2018-12-05T23:52:51.093Z,43.43
2018-12-05T23:55:18.493Z,48.03
2018-12-05T23:57:45.873Z,44.10
